createdAt,value
2023-04-13T00:02:03.667Z,74400.88
2023-04-13T00:12:12.020Z,74410.97
2023-04-13T00:22:20.122Z,74423.13
2023-04-13T00:32:26.849Z,74453.47
2023-04-13T00:42:31.396Z,74479.75
2023-04-13T00:52:40.160Z,74497.97
2023-04-13T01:02:43.762Z,74508.09
2023-04-13T01:13:20.924Z,74518.19
2023-04-13T01:23:40.700Z,74524.28
2023-04-13T01:33:47.078Z,74548.56
2023-04-13T01:43:51.163Z,74556.66
2023-04-13T01:54:28.292Z,74556.66
2023-04-13T02:04:33.782Z,74544.50
2023-04-13T02:14:38.765Z,74540.47
2023-04-13T02:24:43.305Z,74540.47
2023-04-13T02:34:45.623Z,74552.59
2023-04-13T02:44:51.383Z,74564.75
2023-04-13T02:54:59.204Z,74566.75
2023-04-13T03:05:07.151Z,74562.72
2023-04-13T03:15:13.400Z,74576.88
2023-04-13T03:25:18.210Z,74593.06
2023-04-13T03:35:25.672Z,74601.16
2023-04-13T03:45:27.949Z,74597.09
2023-04-13T03:55:35.124Z,74605.19
2023-04-13T04:05:42.552Z,74593.06
2023-04-13T04:15:47.372Z,74587.00
2023-04-13T04:25:59.632Z,74568.78
2023-04-13T04:36:14.481Z,74540.47
2023-04-13T04:46:27.639Z,74530.34
2023-04-13T04:56:36.195Z,74516.19
2023-04-13T05:06:41.745Z,74508.09
2023-04-13T05:16:48.009Z,74471.66
2023-04-13T05:27:05.003Z,74429.19
2023-04-13T05:37:12.471Z,74350.28
2023-04-13T05:47:22.260Z,74190.47
2023-04-13T05:57:27.761Z,74143.94
2023-04-13T06:07:31.035Z,74119.66
2023-04-13T06:17:37.404Z,73943.66
2023-04-13T06:27:46.757Z,73832.41
2023-04-13T06:37:49.523Z,73850.59
2023-04-13T06:47:58.268Z,73674.63
2023-04-13T06:58:01.072Z,73626.06
2023-04-13T07:08:03.500Z,73575.50
2023-04-13T07:18:08.689Z,73563.38
2023-04-13T07:28:14.214Z,73476.41
2023-04-13T07:38:18.830Z,73488.53
2023-04-13T07:48:23.485Z,73444.03
2023-04-13T07:58:26.628Z,73541.13
2023-04-13T08:08:30.390Z,73506.72
2023-04-13T08:18:35.937Z,73646.31
2023-04-13T08:28:42.703Z,73642.25
2023-04-13T08:38:44.943Z,73630.13
2023-04-13T08:48:53.910Z,73553.25
2023-04-13T08:59:07.803Z,73539.09
2023-04-13T09:09:16.083Z,73557.31
2023-04-13T09:19:30.575Z,73567.41
2023-04-13T09:29:39.100Z,73537.06
2023-04-13T09:39:43.648Z,73553.25
2023-04-13T09:49:53.266Z,73672.59
2023-04-13T09:59:56.877Z,73656.41
2023-04-13T10:10:02.032Z,73698.91
2023-04-13T10:20:14.084Z,73686.75
2023-04-13T10:30:17.823Z,73690.81
2023-04-13T10:40:29.117Z,73658.44
2023-04-13T10:50:38.444Z,73646.31
2023-04-13T11:00:46.289Z,73581.56
2023-04-13T11:11:04.373Z,73658.44
2023-04-13T11:21:14.392Z,73654.41
2023-04-13T11:31:18.950Z,73662.47
2023-04-13T11:41:23.735Z,73656.41
2023-04-13T11:51:29.628Z,73656.41
2023-04-13T12:01:36.640Z,73666.53
2023-04-13T12:11:50.036Z,73609.91
2023-04-13T12:22:01.306Z,73583.59
2023-04-13T12:32:14.850Z,73563.38
2023-04-13T12:42:20.118Z,73528.97
2023-04-13T12:52:34.394Z,73541.13
2023-04-13T13:02:38.437Z,73553.25
2023-04-13T13:12:40.663Z,73524.94
2023-04-13T13:22:45.358Z,73472.34
2023-04-13T13:32:47.585Z,73490.56
2023-04-13T13:42:52.333Z,73484.47
2023-04-13T13:53:03.998Z,73470.31
2023-04-13T14:03:20.418Z,73452.13
2023-04-13T14:13:23.512Z,73480.44
2023-04-13T14:23:28.107Z,73458.19
2023-04-13T14:33:32.502Z,73462.25
2023-04-13T14:43:36.993Z,73484.47
2023-04-13T14:53:39.736Z,73488.53
2023-04-13T15:03:49.576Z,73508.75
2023-04-13T15:13:53.060Z,73504.72
2023-04-13T15:23:58.665Z,73508.75
2023-04-13T15:34:01.548Z,73504.72
2023-04-13T15:44:04.072Z,73516.84
2023-04-13T15:54:06.272Z,73508.75
2023-04-13T16:04:11.563Z,73531.00
2023-04-13T16:14:14.062Z,73526.97
2023-04-13T16:24:20.361Z,73539.09
2023-04-13T16:34:26.026Z,73557.31
2023-04-13T16:44:31.243Z,73565.41
2023-04-13T16:54:37.150Z,73569.44
2023-04-13T17:04:41.051Z,73605.84
2023-04-13T17:14:45.817Z,73622.03
2023-04-13T17:24:50.641Z,73662.47
2023-04-13T17:34:57.303Z,73698.91
2023-04-13T17:45:03.567Z,73733.28
2023-04-13T17:55:06.367Z,73743.41
2023-04-13T18:05:15.576Z,73781.84
2023-04-13T18:15:17.755Z,73798.00
2023-04-13T18:25:22.371Z,73820.25
2023-04-13T18:35:30.612Z,73842.50
2023-04-13T18:45:32.903Z,73872.84
2023-04-13T18:55:37.420Z,73893.09
2023-04-13T19:05:39.764Z,73935.56
2023-04-13T19:15:45.310Z,73951.75
2023-04-13T19:25:50.938Z,73967.94
2023-04-13T19:35:55.541Z,73992.22
2023-04-13T19:45:57.967Z,74038.75
2023-04-13T19:56:00.219Z,74069.09
2023-04-13T20:06:03.182Z,74119.66
2023-04-13T20:16:07.601Z,74139.88
2023-04-13T20:26:16.826Z,74172.25
2023-04-13T20:36:21.517Z,74194.50
2023-04-13T20:46:25.722Z,74224.84
2023-04-13T20:56:28.503Z,74245.09
2023-04-13T21:06:32.110Z,74267.34
2023-04-13T21:16:36.785Z,74228.91
2023-04-13T21:26:39.117Z,74297.69
2023-04-13T21:46:58.408Z,74346.22
2023-04-13T21:57:01.711Z,74362.41
2023-04-13T22:07:06.735Z,74382.66
2023-04-13T22:17:12.718Z,74394.78
2023-04-13T22:27:16.959Z,74417.03
2023-04-13T22:37:21.694Z,74419.06
2023-04-13T22:47:25.137Z,74419.06
2023-04-13T22:57:27.374Z,74429.19
2023-04-13T23:07:30.142Z,74437.28
2023-04-13T23:17:34.808Z,74447.38
2023-04-13T23:27:42.515Z,74465.59
2023-04-13T23:37:54.086Z,74471.66
2023-04-13T23:47:59.892Z,74483.81
2023-04-13T23:58:07.062Z,74491.91
